Huvudsida
METAR-TAF:

METAR-TAF

Flygplatser :

Djanet, Algeriet

latitud: 24-33N, longitud: 009-28E, höjd: 1054 m

Aktuellt väderrapport

Denna rapport gjordes för 51 minuter sedan, klockan 11:00 UTC
Vind 3 kt från syd/sydost
Temperatur 30°C
Tryck 1023 hPa
Sikt 10 km eller mer
Inga moln under 1 500 m eller inga cumulonimbus

METAR: DAAJ 161100Z 16003KT CAVOK 30/// Q1023

Tid: 12:51 (11:51 UTC)

Väderprognos

Denna rapport gjordes för 51 minuter sedan, klockan 11:00 UTC
Prognos gäller från 16 kl. 12 UTC till 17 kl. 12 UTC
Vind 10 kt från ost/sydost
Sikt 10 km eller mer
Inga moln under 1 500 m eller inga cumulonimbus
Temporärt
från 16 kl. 14 UTC till 16 kl. 18 UTC
Vind 8 kt från sydväst

TAF: DAAJ 161100Z 1612/1712 12010KT CAVOK TEMPO 1614/1618 22008KT

Aktuella väderrapporter och prognoser från 4000 flygplatser (METAR- och TAF-rapporter).

De tillgängliga stationerna syns som gula och röda prickar på kartan.

För musen över prickarna för att se namnen på stationerna.

Klicka sedan för att få väderrapporter och prognoser.

För att ändra kartan: Klicka på de gröna knapparna med ett svart kors på för att zooma in; den gröna knappen med ett streck på för att zooma ut; eller på de gröna pilarna för angränsande kartor.


METAR-TAF: